createdAt,value
2022-12-17T00:02:42.254Z,25.60
2022-12-17T00:05:27.870Z,24.13
2022-12-17T00:08:17.409Z,23.98
2022-12-17T00:11:03.047Z,23.23
2022-12-17T00:13:48.407Z,22.45
2022-12-17T00:16:33.985Z,23.17
2022-12-17T00:19:19.597Z,23.20
2022-12-17T00:22:05.184Z,25.02
2022-12-17T00:24:50.951Z,22.58
2022-12-17T00:27:37.555Z,22.88
2022-12-17T00:30:23.314Z,22.02
2022-12-17T00:33:10.502Z,24.25
2022-12-17T00:36:10.063Z,25.02
2022-12-17T00:38:55.769Z,23.20
2022-12-17T00:41:42.159Z,22.02
2022-12-17T00:44:27.593Z,22.95
2022-12-17T00:47:13.262Z,22.70
2022-12-17T00:50:18.703Z,22.38
2022-12-17T00:53:04.339Z,23.17
2022-12-17T00:55:50.340Z,23.45
2022-12-17T00:58:35.855Z,22.70
2022-12-17T01:01:21.639Z,22.05
2022-12-17T01:04:07.267Z,23.75
2022-12-17T01:06:52.718Z,22.92
2022-12-17T01:09:38.974Z,23.23
2022-12-17T01:12:24.487Z,23.35
2022-12-17T01:15:09.957Z,23.67
2022-12-17T01:17:56.184Z,22.30
2022-12-17T01:20:41.695Z,23.63
2022-12-17T01:23:27.625Z,22.55
2022-12-17T01:26:13.640Z,22.95
2022-12-17T01:28:59.447Z,23.63
2022-12-17T01:31:45.142Z,22.85
2022-12-17T01:34:30.646Z,22.50
2022-12-17T01:37:16.144Z,23.05
2022-12-17T01:40:01.499Z,23.25
2022-12-17T01:42:46.987Z,21.50
2022-12-17T01:45:33.382Z,21.23
2022-12-17T01:48:20.112Z,22.25
2022-12-17T01:51:07.854Z,21.80
2022-12-17T01:53:54.761Z,22.30
2022-12-17T01:56:41.952Z,23.42
2022-12-17T01:59:27.571Z,22.17
2022-12-17T02:02:13.269Z,21.55
2022-12-17T02:04:58.805Z,23.08
2022-12-17T02:07:47.466Z,21.80
2022-12-17T02:10:44.011Z,20.85
2022-12-17T02:13:31.827Z,22.27
2022-12-17T02:16:19.418Z,21.98
2022-12-17T02:19:09.583Z,22.83
2022-12-17T02:21:54.958Z,22.05
2022-12-17T02:25:03.452Z,20.75
2022-12-17T02:27:49.032Z,20.80
2022-12-17T02:30:34.518Z,22.70
2022-12-17T02:33:19.819Z,22.40
2022-12-17T02:36:18.965Z,22.20
2022-12-17T02:39:04.287Z,21.77
2022-12-17T02:41:50.862Z,22.58
2022-12-17T02:44:36.816Z,20.95
2022-12-17T02:47:23.840Z,20.67
2022-12-17T02:50:09.474Z,20.17
2022-12-17T02:52:55.481Z,20.77
2022-12-17T02:55:41.048Z,21.73
2022-12-17T02:58:26.711Z,20.15
2022-12-17T03:01:12.315Z,19.70
2022-12-17T03:03:57.915Z,21.13
2022-12-17T03:06:43.221Z,21.42
2022-12-17T03:09:28.850Z,19.85
2022-12-17T03:12:14.412Z,21.50
2022-12-17T03:14:59.931Z,20.23
2022-12-17T03:17:45.497Z,20.58
2022-12-17T03:20:31.022Z,20.52
2022-12-17T03:23:23.591Z,21.63
2022-12-17T03:26:09.121Z,20.58
2022-12-17T03:28:54.927Z,21.50
2022-12-17T03:31:40.484Z,21.42
2022-12-17T03:34:26.229Z,20.95
2022-12-17T03:37:11.928Z,20.67
2022-12-17T03:39:57.710Z,22.70
2022-12-17T03:42:43.598Z,22.15
2022-12-17T03:45:29.528Z,21.42
2022-12-17T03:48:27.780Z,22.83
2022-12-17T03:51:13.133Z,22.40
2022-12-17T03:53:58.700Z,21.83
2022-12-17T03:56:44.348Z,21.88
2022-12-17T03:59:30.342Z,21.33
2022-12-17T04:02:16.378Z,21.77
2022-12-17T04:05:01.980Z,23.33
2022-12-17T04:07:47.621Z,21.08
2022-12-17T04:10:33.112Z,21.92
2022-12-17T04:13:18.585Z,21.65
2022-12-17T04:16:04.125Z,22.23
2022-12-17T04:18:49.674Z,21.85
2022-12-17T04:21:35.171Z,22.83
2022-12-17T04:24:20.573Z,20.65
2022-12-17T04:27:06.042Z,20.98
2022-12-17T04:29:51.672Z,22.17
2022-12-17T04:32:37.198Z,23.25
2022-12-17T04:35:23.009Z,22.10
2022-12-17T04:38:08.389Z,23.02
2022-12-17T04:40:53.902Z,23.00
2022-12-17T04:43:39.656Z,21.80
2022-12-17T04:46:25.222Z,23.05
2022-12-17T04:49:10.825Z,22.83
2022-12-17T04:51:56.274Z,22.30
2022-12-17T04:54:41.877Z,23.63
2022-12-17T04:57:27.885Z,23.17
2022-12-17T05:00:13.703Z,22.77
2022-12-17T05:02:59.661Z,22.27
2022-12-17T05:05:45.188Z,24.05
2022-12-17T05:08:30.876Z,23.88
2022-12-17T05:11:20.831Z,23.85
2022-12-17T05:14:06.520Z,22.35
2022-12-17T05:16:51.941Z,21.80
2022-12-17T05:19:37.600Z,23.13
2022-12-17T05:22:23.185Z,23.15
2022-12-17T05:25:08.560Z,23.27
2022-12-17T05:27:54.118Z,23.30
2022-12-17T05:30:39.921Z,23.73
2022-12-17T05:33:25.554Z,21.58
2022-12-17T05:36:11.288Z,21.67
2022-12-17T05:38:57.061Z,19.60
2022-12-17T05:41:42.697Z,18.08
2022-12-17T05:44:28.479Z,17.98
2022-12-17T05:47:14.107Z,19.30
2022-12-17T05:49:59.843Z,19.15
2022-12-17T05:52:45.480Z,20.35
2022-12-17T05:55:31.128Z,19.70
2022-12-17T05:58:22.824Z,20.05
2022-12-17T06:01:08.564Z,19.50
2022-12-17T06:03:54.230Z,19.13
2022-12-17T06:06:39.839Z,19.33
2022-12-17T06:09:25.375Z,17.00
2022-12-17T06:12:10.928Z,19.27
2022-12-17T06:14:56.661Z,17.33
2022-12-17T06:17:42.205Z,17.40
2022-12-17T06:20:28.041Z,16.95
2022-12-17T06:23:23.612Z,17.23
2022-12-17T06:26:11.046Z,16.92
2022-12-17T06:29:00.131Z,16.90
2022-12-17T06:31:45.689Z,18.13
2022-12-17T06:34:31.309Z,17.85
2022-12-17T06:37:16.800Z,18.38
2022-12-17T06:40:02.327Z,18.38
2022-12-17T06:42:47.867Z,18.05
2022-12-17T06:45:33.607Z,18.08
2022-12-17T06:48:22.746Z,19.00
2022-12-17T06:51:08.203Z,18.80
2022-12-17T06:53:53.656Z,18.27
2022-12-17T06:56:39.081Z,16.63
2022-12-17T06:59:25.019Z,15.98
2022-12-17T07:02:11.003Z,15.48
2022-12-17T07:04:56.544Z,16.58
2022-12-17T07:07:42.197Z,15.98
2022-12-17T07:10:27.720Z,16.70
2022-12-17T07:13:13.179Z,15.98
2022-12-17T07:15:58.699Z,17.35
2022-12-17T07:18:44.442Z,18.55
2022-12-17T07:21:30.210Z,17.42
2022-12-17T07:24:15.637Z,18.45
2022-12-17T07:27:01.195Z,17.67
2022-12-17T07:29:46.807Z,17.45
2022-12-17T07:32:32.183Z,16.63
2022-12-17T07:35:17.704Z,17.15
2022-12-17T07:38:03.287Z,19.27
2022-12-17T07:40:48.728Z,18.65
2022-12-17T07:43:34.684Z,18.60
2022-12-17T07:46:20.494Z,18.83
2022-12-17T07:49:06.257Z,18.80
2022-12-17T07:51:51.798Z,18.98
2022-12-17T07:54:37.382Z,19.17
2022-12-17T07:57:22.845Z,20.48
2022-12-17T08:00:08.389Z,17.80
2022-12-17T08:02:54.259Z,18.45
2022-12-17T08:05:39.870Z,19.40
2022-12-17T08:08:31.989Z,18.98
2022-12-17T08:11:18.060Z,19.35
2022-12-17T08:14:03.743Z,19.75
2022-12-17T08:16:49.221Z,19.20
2022-12-17T08:19:34.542Z,18.70
2022-12-17T08:22:19.927Z,19.25
2022-12-17T08:25:05.440Z,18.83
2022-12-17T08:27:51.041Z,19.02
2022-12-17T08:30:36.875Z,17.95
2022-12-17T08:33:23.217Z,20.23
2022-12-17T08:36:15.162Z,20.92
2022-12-17T08:39:00.626Z,20.48
2022-12-17T08:41:51.093Z,18.10
2022-12-17T08:44:39.700Z,19.38
2022-12-17T08:47:25.271Z,19.70
2022-12-17T08:50:10.798Z,18.75
2022-12-17T08:52:56.350Z,20.15
2022-12-17T08:55:41.763Z,18.75
2022-12-17T08:58:27.198Z,17.70
2022-12-17T09:01:12.856Z,19.50
2022-12-17T09:03:58.365Z,19.08
2022-12-17T09:06:44.008Z,17.23
2022-12-17T09:09:29.766Z,18.52
2022-12-17T09:12:15.431Z,20.30
2022-12-17T09:15:01.212Z,19.02
2022-12-17T09:17:46.859Z,17.90
2022-12-17T09:20:32.502Z,19.63
2022-12-17T09:23:17.915Z,19.42
2022-12-17T09:26:03.606Z,20.67
2022-12-17T09:28:49.635Z,20.30
2022-12-17T09:31:37.432Z,21.05
2022-12-17T09:34:23.090Z,18.98
2022-12-17T09:37:08.769Z,22.05
2022-12-17T09:39:54.249Z,19.40
2022-12-17T09:42:59.535Z,18.73
2022-12-17T09:45:51.695Z,21.20
2022-12-17T09:48:42.715Z,19.35
2022-12-17T09:51:41.641Z,19.20
2022-12-17T09:54:31.132Z,20.33
2022-12-17T09:57:16.711Z,20.80
2022-12-17T10:00:02.486Z,19.13
2022-12-17T10:02:49.051Z,18.90
2022-12-17T10:05:44.962Z,17.92
2022-12-17T10:08:39.481Z,20.60
2022-12-17T10:11:34.324Z,19.90
2022-12-17T10:14:20.276Z,20.63
2022-12-17T10:17:11.506Z,21.77
2022-12-17T10:19:58.660Z,19.63
2022-12-17T10:22:44.284Z,19.48
2022-12-17T10:25:37.946Z,19.08
2022-12-17T10:28:30.144Z,19.35
2022-12-17T10:31:16.305Z,19.85
2022-12-17T10:34:01.719Z,19.00
2022-12-17T10:36:47.858Z,18.80
2022-12-17T10:39:39.687Z,19.95
2022-12-17T10:42:38.218Z,18.73
2022-12-17T10:45:43.033Z,21.33
2022-12-17T10:48:47.417Z,20.05
2022-12-17T10:51:37.663Z,20.52
2022-12-17T10:54:26.079Z,21.67
2022-12-17T10:57:12.051Z,21.83
2022-12-17T10:59:57.539Z,21.60
2022-12-17T11:02:46.770Z,20.58
2022-12-17T11:05:33.463Z,19.30
2022-12-17T11:08:19.019Z,19.95
2022-12-17T11:11:04.570Z,20.23
2022-12-17T11:13:54.204Z,20.55
2022-12-17T11:16:44.315Z,13.00
2022-12-17T11:19:30.072Z,16.75
2022-12-17T11:22:16.282Z,15.32
2022-12-17T11:25:16.991Z,16.70
2022-12-17T11:28:06.404Z,17.80
2022-12-17T11:30:52.315Z,17.95
2022-12-17T11:33:41.424Z,18.08
2022-12-17T11:36:36.831Z,17.13
2022-12-17T11:39:39.284Z,16.10
2022-12-17T11:42:25.116Z,16.70
2022-12-17T11:45:10.876Z,18.10
2022-12-17T11:47:59.452Z,19.08
2022-12-17T11:50:54.628Z,19.48
2022-12-17T11:54:00.947Z,22.45
2022-12-17T11:56:50.553Z,23.30
2022-12-17T11:59:39.194Z,22.03
2022-12-17T12:02:33.186Z,22.40
2022-12-17T12:05:23.676Z,24.08
2022-12-17T12:08:22.844Z,22.20
2022-12-17T12:11:12.713Z,21.85
2022-12-17T12:14:01.496Z,17.08
2022-12-17T12:17:22.390Z,20.30
2022-12-17T12:20:15.145Z,21.20
2022-12-17T12:23:00.777Z,21.73
2022-12-17T12:26:09.450Z,21.45
2022-12-17T12:29:03.154Z,21.90
2022-12-17T12:31:51.417Z,21.27
2022-12-17T12:34:37.957Z,19.15
2022-12-17T12:37:24.095Z,22.55
2022-12-17T12:40:09.697Z,23.05
2022-12-17T12:42:57.983Z,23.60
2022-12-17T12:45:43.748Z,23.83
2022-12-17T12:49:02.160Z,25.13
2022-12-17T12:51:48.534Z,24.52
2022-12-17T12:54:39.980Z,24.52
2022-12-17T12:57:43.716Z,24.17
2022-12-17T13:00:47.880Z,25.90
2022-12-17T13:03:39.766Z,24.92
2022-12-17T13:06:07.182Z,24.33
2022-12-17T13:08:34.456Z,25.67
2022-12-17T13:11:10.115Z,25.05
2022-12-17T13:13:37.820Z,26.80
2022-12-17T13:16:05.861Z,24.27
2022-12-17T13:18:34.177Z,24.23
2022-12-17T13:21:02.688Z,23.30
2022-12-17T13:23:36.661Z,23.25
2022-12-17T13:26:20.405Z,21.27
2022-12-17T13:28:58.685Z,21.85
2022-12-17T13:31:29.567Z,21.35
2022-12-17T13:34:02.636Z,22.55
2022-12-17T13:36:32.469Z,21.80
2022-12-17T13:39:15.121Z,21.73
2022-12-17T13:41:42.107Z,19.95
2022-12-17T13:44:18.863Z,21.75
2022-12-17T13:46:47.629Z,20.83
2022-12-17T13:49:22.159Z,20.25
2022-12-17T13:51:49.215Z,20.35
2022-12-17T13:54:17.025Z,19.90
2022-12-17T13:56:44.118Z,19.60
2022-12-17T13:59:18.983Z,19.58
2022-12-17T14:01:46.749Z,21.05
2022-12-17T14:04:20.662Z,20.45
2022-12-17T14:06:47.835Z,20.33
2022-12-17T14:09:18.260Z,20.23
2022-12-17T14:14:32.432Z,18.90
2022-12-17T14:16:59.558Z,20.23
2022-12-17T14:19:27.014Z,19.92
2022-12-17T14:21:54.001Z,20.15
2022-12-17T14:24:23.155Z,21.15
2022-12-17T14:26:50.859Z,20.95
2022-12-17T14:29:22.421Z,19.77
2022-12-17T14:32:02.763Z,19.63
2022-12-17T14:34:30.875Z,19.98
2022-12-17T14:36:58.699Z,20.73
2022-12-17T14:39:25.808Z,20.92
2022-12-17T14:42:11.348Z,20.27
2022-12-17T14:44:42.089Z,19.52
2022-12-17T14:47:18.203Z,20.40
2022-12-17T14:49:55.398Z,20.33
2022-12-17T14:52:35.264Z,20.48
2022-12-17T14:55:02.637Z,20.48
2022-12-17T14:57:29.665Z,20.75
2022-12-17T14:59:56.731Z,20.77
2022-12-17T15:02:26.455Z,21.45
2022-12-17T15:04:54.243Z,21.65
2022-12-17T15:07:28.404Z,22.00
2022-12-17T15:09:55.771Z,19.83
2022-12-17T15:12:23.129Z,21.55
2022-12-17T15:14:50.163Z,20.33
2022-12-17T15:17:17.253Z,19.73
2022-12-17T15:19:44.398Z,20.38
2022-12-17T15:22:17.662Z,19.65
2022-12-17T15:24:45.076Z,19.25
2022-12-17T15:27:16.171Z,20.23
2022-12-17T15:29:43.545Z,20.05
2022-12-17T15:32:13.432Z,19.98
2022-12-17T15:34:40.473Z,23.40
2022-12-17T15:37:07.477Z,21.83
2022-12-17T15:39:34.525Z,23.50
2022-12-17T15:42:20.068Z,22.35
2022-12-17T15:44:47.060Z,21.80
2022-12-17T15:47:14.045Z,21.42
2022-12-17T15:49:41.400Z,22.35
2022-12-17T15:52:08.610Z,24.08
2022-12-17T15:54:35.639Z,23.35
2022-12-17T15:57:02.626Z,21.52
2022-12-17T15:59:29.643Z,22.02
2022-12-17T16:01:56.788Z,21.25
2022-12-17T16:04:25.360Z,22.75
2022-12-17T16:06:52.677Z,22.80
2022-12-17T16:09:24.206Z,23.77
2022-12-17T16:11:57.482Z,21.83
2022-12-17T16:14:24.515Z,21.77
2022-12-17T16:16:51.567Z,22.77
2022-12-17T16:19:18.960Z,23.92
2022-12-17T16:21:47.125Z,23.20
2022-12-17T16:24:14.570Z,21.70
2022-12-17T16:26:41.663Z,21.23
2022-12-17T16:29:08.723Z,23.60
2022-12-17T16:31:35.887Z,23.25
2022-12-17T16:34:02.927Z,24.63
2022-12-17T16:36:29.896Z,25.25
2022-12-17T16:38:56.888Z,26.90
2022-12-17T16:41:24.100Z,25.75
2022-12-17T16:43:51.378Z,26.48
2022-12-17T16:46:28.681Z,24.70
2022-12-17T16:48:55.961Z,24.67
2022-12-17T16:51:28.492Z,27.13
2022-12-17T16:53:56.103Z,25.98
2022-12-17T16:56:23.963Z,27.00
2022-12-17T16:58:51.131Z,24.60
2022-12-17T17:01:21.766Z,23.50
2022-12-17T17:03:48.962Z,22.48
2022-12-17T17:06:16.502Z,22.40
2022-12-17T17:08:43.636Z,23.05
2022-12-17T17:11:11.391Z,22.17
2022-12-17T17:13:38.581Z,22.48
2022-12-17T17:16:06.027Z,21.13
2022-12-17T17:18:33.358Z,23.15
2022-12-17T17:21:19.320Z,23.42
2022-12-17T17:23:50.224Z,23.42
2022-12-17T17:26:17.478Z,22.70
2022-12-17T17:28:45.447Z,23.83
2022-12-17T17:31:13.021Z,21.70
2022-12-17T17:33:40.783Z,23.88
2022-12-17T17:36:08.531Z,24.45
2022-12-17T17:38:36.434Z,25.23
2022-12-17T17:41:04.378Z,26.15
2022-12-17T17:43:31.715Z,25.55
2022-12-17T17:46:08.563Z,23.88
2022-12-17T17:48:36.010Z,23.15
2022-12-17T17:51:07.445Z,24.92
2022-12-17T17:53:34.479Z,23.88
2022-12-17T17:56:17.439Z,26.33
2022-12-17T17:58:44.989Z,25.65
2022-12-17T18:01:12.402Z,23.85
2022-12-17T18:03:39.481Z,24.90
2022-12-17T18:06:07.155Z,25.33
2022-12-17T18:08:37.719Z,23.15
2022-12-17T18:11:05.727Z,26.13
2022-12-17T18:13:51.241Z,26.33
2022-12-17T18:16:18.372Z,25.00
2022-12-17T18:18:45.594Z,23.55
2022-12-17T18:21:13.609Z,24.80
2022-12-17T18:23:40.613Z,23.52
2022-12-17T18:26:14.712Z,23.38
2022-12-17T18:28:42.035Z,23.85
2022-12-17T18:31:09.932Z,20.92
2022-12-17T18:33:37.162Z,20.25
2022-12-17T18:36:08.597Z,21.38
2022-12-17T18:38:36.319Z,19.85
2022-12-17T18:41:30.927Z,21.67
2022-12-17T18:43:58.909Z,21.35
2022-12-17T18:46:26.491Z,22.08
2022-12-17T18:48:54.141Z,22.73
2022-12-17T18:51:22.509Z,22.13
2022-12-17T18:53:50.104Z,23.20
2022-12-17T18:56:37.861Z,20.98
2022-12-17T18:59:05.158Z,21.45
2022-12-17T19:01:33.566Z,23.85
2022-12-17T19:04:04.639Z,20.92
2022-12-17T19:06:31.980Z,20.90
2022-12-17T19:08:59.435Z,21.58
2022-12-17T19:11:26.805Z,20.98
2022-12-17T19:13:54.130Z,21.33
2022-12-17T19:16:22.970Z,19.02
2022-12-17T19:18:53.895Z,20.90
2022-12-17T19:21:21.316Z,22.33
2022-12-17T19:23:48.924Z,20.67
2022-12-17T19:26:17.391Z,21.65
2022-12-17T19:28:46.080Z,20.60
2022-12-17T19:31:13.484Z,20.00
2022-12-17T19:33:41.037Z,21.50
